Time;durP1;ratioP1;P1;durP2;ratioP2;P2;SDS_P1;SDS_P2;PMS_P1;PMS_P2;Temp;Humidity;BMP_temperature;BMP_pressure;BME280_temperature;BME280_humidity;BME280_pressure;Samples;Min_cycle;Max_cycle;Signal;HPM_P1;HPM_P2
2023/05/19 00:01:46;;;;;;;;;;;;;;;16.13;62.04;99657.28;5093597;28;19912;-42
2023/05/19 00:04:13;;;;;;;;;;;;;;;15.97;62.63;99662.38;5093563;28;19940;-42
2023/05/19 00:06:40;;;;;;;;;;;;;;;16.22;62.07;99669.22;5093654;28;19912;-42
2023/05/19 00:09:06;;;;;;;;;;;;;;;16.29;61.71;99655.66;5093336;28;19912;-42
2023/05/19 00:11:32;;;;;;;;;;;;;;;16.07;61.74;99658.22;5093352;28;19916;-43
2023/05/19 00:13:58;;;;;;;;;;;;;;;16.21;61.42;99651.50;5093398;28;19912;-42
2023/05/19 00:16:24;;;;;;;;;;;;;;;16.00;62.89;99645.78;5093208;28;19912;-42
2023/05/19 00:18:50;;;;;;;;;;;;;;;15.89;63.45;99649.34;5093385;28;19943;-42
2023/05/19 00:21:16;;;;;;;;;;;;;;;15.67;62.77;99642.97;5093486;28;20377;-43
2023/05/19 00:23:41;;;;;;;;;;;;;;;15.92;62.67;99651.56;5093405;28;19922;-42
2023/05/19 00:26:06;;;;;;;;;;;;;;;15.90;63.05;99650.97;5093107;28;20265;-42
2023/05/19 00:28:31;;;;;;;;;;;;;;;15.89;63.15;99651.22;5092872;28;19935;-42
2023/05/19 00:30:57;;;;;;;;;;;;;;;15.85;62.10;99644.72;5092802;28;19916;-42
2023/05/19 00:33:22;;;;;;;;;;;;;;;15.88;62.62;99641.53;5093243;28;19919;-42
2023/05/19 00:35:47;;;;;;;;;;;;;;;16.23;60.88;99646.72;5093259;28;19935;-42
2023/05/19 00:38:13;;;;;;;;;;;;;;;16.33;61.65;99644.19;5093176;28;19912;-41
2023/05/19 00:40:38;;;;;;;;;;;;;;;16.00;61.39;99639.59;5093010;28;19912;-41
2023/05/19 00:43:07;;;;;;;;;;;;;;;15.94;62.04;99636.03;5093193;28;19912;-42
2023/05/19 00:45:33;;;;;;;;;;;;;;;16.28;60.93;99629.88;5093025;28;19912;-42
2023/05/19 00:47:58;;;;;;;;;;;;;;;15.92;62.09;99626.59;5092718;28;19954;-42
2023/05/19 00:50:23;;;;;;;;;;;;;;;15.96;61.49;99635.78;5092650;28;19916;-42
2023/05/19 00:52:49;;;;;;;;;;;;;;;15.98;61.60;99631.78;5092669;28;19919;-40
2023/05/19 00:55:15;;;;;;;;;;;;;;;16.01;61.44;99631.31;5092766;28;19959;-42
2023/05/19 00:57:41;;;;;;;;;;;;;;;16.09;61.09;99635.47;5092776;28;19919;-42
2023/05/19 01:00:07;;;;;;;;;;;;;;;16.27;60.91;99625.56;5092227;28;20437;-42
2023/05/19 01:02:32;;;;;;;;;;;;;;;16.08;61.29;99635.72;5092581;28;19912;-43
2023/05/19 01:04:58;;;;;;;;;;;;;;;15.98;61.68;99625.63;5092839;28;20348;-42
2023/05/19 01:07:24;;;;;;;;;;;;;;;15.76;62.00;99628.16;5092478;28;19935;-42
2023/05/19 01:09:50;;;;;;;;;;;;;;;15.99;61.95;99628.06;5092897;28;19916;-42
2023/05/19 01:12:15;;;;;;;;;;;;;;;16.26;60.20;99623.91;5092221;28;20065;-43
2023/05/19 01:14:41;;;;;;;;;;;;;;;16.01;60.91;99627.81;5092158;28;20388;-43
2023/05/19 01:17:08;;;;;;;;;;;;;;;16.00;61.24;99629.69;5092556;28;19920;-42
2023/05/19 01:19:37;;;;;;;;;;;;;;;16.25;60.85;99623.13;5092307;28;19916;-42
2023/05/19 01:22:06;;;;;;;;;;;;;;;16.02;61.00;99621.41;5092243;28;19916;-43
2023/05/19 01:24:40;;;;;;;;;;;;;;;16.25;60.67;99631.16;5092005;28;19935;-43
2023/05/19 01:27:14;;;;;;;;;;;;;;;16.23;61.16;99633.28;5091875;28;19944;-42
2023/05/19 01:29:41;;;;;;;;;;;;;;;16.50;59.80;99629.94;5092399;28;19920;-42
2023/05/19 01:32:08;;;;;;;;;;;;;;;16.28;60.21;99641.44;5091932;28;19967;-43
2023/05/19 01:34:36;;;;;;;;;;;;;;;16.08;60.59;99630.34;5092333;28;20067;-42
2023/05/19 01:37:02;;;;;;;;;;;;;;;15.95;60.83;99637.63;5092284;28;19919;-42
2023/05/19 01:39:28;;;;;;;;;;;;;;;15.87;60.98;99637.22;5091394;28;20372;-43
2023/05/19 01:41:53;;;;;;;;;;;;;;;15.95;61.63;99643.00;5091809;28;19912;-42
2023/05/19 01:44:21;;;;;;;;;;;;;;;16.15;60.23;99637.19;5092048;28;19948;-42
2023/05/19 01:46:46;;;;;;;;;;;;;;;16.08;61.01;99636.53;5091627;28;19942;-42
2023/05/19 01:49:12;;;;;;;;;;;;;;;15.85;60.51;99633.97;5091562;28;19912;-42
2023/05/19 01:51:37;;;;;;;;;;;;;;;15.91;61.22;99636.50;5091373;28;20328;-43
2023/05/19 01:54:02;;;;;;;;;;;;;;;15.61;60.84;99642.06;5091664;28;19985;-43
2023/05/19 01:56:37;;;;;;;;;;;;;;;15.71;61.29;99642.28;5091572;28;19932;-42
2023/05/19 01:59:09;;;;;;;;;;;;;;;16.10;60.03;99637.09;5091736;28;19915;-43
2023/05/19 02:01:34;;;;;;;;;;;;;;;15.93;60.74;99639.75;5091673;28;19916;-43
2023/05/19 02:04:05;;;;;;;;;;;;;;;15.97;60.37;99640.09;5091880;28;19973;-42
2023/05/19 02:06:49;;;;;;;;;;;;;;;16.06;60.27;99643.19;5091489;28;20368;-42
2023/05/19 02:09:15;;;;;;;;;;;;;;;16.04;60.27;99638.06;5091390;28;19920;-43
2023/05/19 02:11:40;;;;;;;;;;;;;;;15.93;60.32;99647.78;5090181;28;19916;-42
2023/05/19 02:14:24;;;;;;;;;;;;;;;16.12;59.59;99645.72;5091383;28;20391;-42
2023/05/19 02:16:49;;;;;;;;;;;;;;;16.34;59.47;99650.38;5091722;28;19962;-42
2023/05/19 02:19:24;;;;;;;;;;;;;;;16.35;58.90;99652.00;5091577;28;20296;-42
2023/05/19 02:21:50;;;;;;;;;;;;;;;16.38;58.67;99649.66;5091567;28;19969;-42
2023/05/19 02:24:15;;;;;;;;;;;;;;;16.14;58.80;99650.84;5091621;28;19916;-42
2023/05/19 02:26:41;;;;;;;;;;;;;;;16.27;58.92;99647.84;5091174;28;20426;-42
2023/05/19 02:29:06;;;;;;;;;;;;;;;15.79;60.92;99649.97;5091310;28;19924;-42
2023/05/19 02:31:31;;;;;;;;;;;;;;;15.81;60.29;99649.72;5091060;28;19916;-43
2023/05/19 02:33:56;;;;;;;;;;;;;;;15.95;60.36;99655.63;5091366;28;19912;-42
2023/05/19 02:36:22;;;;;;;;;;;;;;;16.05;60.85;99657.66;5090837;28;19961;-42
2023/05/19 02:38:47;;;;;;;;;;;;;;;15.74;61.47;99651.75;5091310;28;20014;-43
2023/05/19 02:41:12;;;;;;;;;;;;;;;15.80;60.98;99656.97;5091083;28;20355;-43
2023/05/19 02:43:37;;;;;;;;;;;;;;;15.80;61.45;99656.13;5091420;28;19908;-43
2023/05/19 02:46:03;;;;;;;;;;;;;;;15.75;61.58;99653.38;5091064;28;19912;-43
2023/05/19 02:48:28;;;;;;;;;;;;;;;16.25;59.89;99649.16;5090976;28;19912;-42
2023/05/19 02:50:53;;;;;;;;;;;;;;;16.30;60.06;99650.06;5090651;28;20052;-42
2023/05/19 02:53:19;;;;;;;;;;;;;;;16.33;59.08;99654.94;5090899;28;19912;-42
2023/05/19 02:55:44;;;;;;;;;;;;;;;16.10;60.35;99652.38;5091201;28;19912;-43
2023/05/19 02:58:09;;;;;;;;;;;;;;;15.99;60.69;99641.50;5090783;28;19916;-42
2023/05/19 03:00:35;;;;;;;;;;;;;;;15.82;60.71;99648.66;5092882;28;19940;-43
2023/05/19 03:03:01;;;;;;;;;;;;;;;15.89;60.74;99654.69;5090518;28;19922;-42
2023/05/19 03:05:27;;;;;;;;;;;;;;;16.25;59.48;99654.53;5090513;28;19920;-43
2023/05/19 03:07:53;;;;;;;;;;;;;;;15.91;60.62;99657.97;5097554;28;19916;-42
2023/05/19 03:10:18;;;;;;;;;;;;;;;15.90;60.73;99668.97;5101430;28;19923;-42
2023/05/19 03:12:43;;;;;;;;;;;;;;;15.86;61.18;99671.31;5093983;28;19916;-42
2023/05/19 03:15:11;;;;;;;;;;;;;;;15.49;62.25;99668.13;5099614;28;19941;-42
2023/05/19 03:17:38;;;;;;;;;;;;;;;15.98;60.66;99672.06;5099663;28;20356;-41
2023/05/19 03:20:04;;;;;;;;;;;;;;;16.05;60.66;99663.03;5097911;28;19922;-42
2023/05/19 03:22:29;;;;;;;;;;;;;;;15.66;62.68;99670.88;5103923;28;19918;-42
2023/05/19 03:24:55;;;;;;;;;;;;;;;15.72;61.72;99673.41;5099527;28;19916;-42
2023/05/19 03:27:20;;;;;;;;;;;;;;;15.85;61.60;99671.53;5093889;28;20317;-42
2023/05/19 03:29:45;;;;;;;;;;;;;;;15.87;61.69;99685.53;5093600;28;19916;-42
2023/05/19 03:32:10;;;;;;;;;;;;;;;15.63;62.57;99677.50;5093566;28;20044;-42
2023/05/19 03:34:36;;;;;;;;;;;;;;;15.94;61.30;99678.16;5094058;28;20339;-42
2023/05/19 03:37:01;;;;;;;;;;;;;;;15.98;61.28;99672.06;5093613;28;20327;-42
2023/05/19 03:39:26;;;;;;;;;;;;;;;15.95;62.03;99680.56;5094014;28;19969;-42
2023/05/19 03:41:52;;;;;;;;;;;;;;;15.68;62.55;99690.22;5093496;28;20380;-43
2023/05/19 03:44:17;;;;;;;;;;;;;;;15.77;62.31;99683.47;5093891;28;19916;-42
2023/05/19 03:46:43;;;;;;;;;;;;;;;15.82;62.41;99700.47;5093428;28;19939;-42
2023/05/19 03:49:08;;;;;;;;;;;;;;;15.94;61.69;99692.38;5095979;28;19916;-42
2023/05/19 03:51:33;;;;;;;;;;;;;;;16.34;60.83;99688.78;5093203;28;19925;-42
2023/05/19 03:53:59;;;;;;;;;;;;;;;16.24;60.58;99688.63;5093422;28;20347;-42
2023/05/19 03:56:26;;;;;;;;;;;;;;;16.15;61.55;99684.69;5090805;28;19919;-43
2023/05/19 03:58:53;;;;;;;;;;;;;;;16.09;60.93;99666.84;5093046;28;19912;-42
2023/05/19 04:01:18;;;;;;;;;;;;;;;15.99;61.85;99688.97;5093275;28;19939;-42
2023/05/19 04:03:44;;;;;;;;;;;;;;;15.69;62.76;99694.53;5093439;28;20353;-43
2023/05/19 04:06:09;;;;;;;;;;;;;;;15.84;62.18;99700.25;5093660;28;20316;-42
2023/05/19 04:08:35;;;;;;;;;;;;;;;15.91;61.44;99710.81;5093584;28;19912;-42
2023/05/19 04:11:00;;;;;;;;;;;;;;;16.10;61.27;99706.06;5094147;28;19922;-42
2023/05/19 04:13:25;;;;;;;;;;;;;;;16.12;61.34;99704.78;5093475;28;19920;-42
2023/05/19 04:15:51;;;;;;;;;;;;;;;16.45;60.62;99697.84;5093759;28;19920;-43
2023/05/19 04:18:16;;;;;;;;;;;;;;;16.59;59.53;99698.34;5093184;28;20352;-44
2023/05/19 04:20:41;;;;;;;;;;;;;;;16.41;59.67;99700.19;5093246;28;19962;-43
2023/05/19 04:23:07;;;;;;;;;;;;;;;16.46;60.35;99695.97;5092891;28;20379;-43
2023/05/19 04:25:34;;;;;;;;;;;;;;;16.56;59.55;99701.50;5093216;28;19912;-44
2023/05/19 04:28:00;;;;;;;;;;;;;;;16.51;62.54;99701.44;5092554;28;20296;-43
2023/05/19 04:30:25;;;;;;;;;;;;;;;16.67;59.79;99707.84;5091803;28;19912;-42
2023/05/19 04:32:50;;;;;;;;;;;;;;;16.35;60.91;99703.81;5092654;28;19912;-42
2023/05/19 04:35:18;;;;;;;;;;;;;;;16.57;59.95;99711.19;5092715;28;19966;-43
2023/05/19 04:37:47;;;;;;;;;;;;;;;16.78;59.60;99709.66;5092843;28;19912;-42
2023/05/19 04:40:12;;;;;;;;;;;;;;;16.60;60.12;99713.38;5091693;28;20436;-43
2023/05/19 04:42:41;;;;;;;;;;;;;;;17.05;58.50;99712.50;5091267;28;19912;-42
2023/05/19 04:45:07;;;;;;;;;;;;;;;17.46;57.78;99715.75;5091867;28;19912;-42
2023/05/19 04:47:35;;;;;;;;;;;;;;;17.51;58.13;99723.88;5092110;28;19919;-42
2023/05/19 04:50:01;;;;;;;;;;;;;;;17.55;57.37;99721.50;5091798;28;19947;-43
2023/05/19 04:52:26;;;;;;;;;;;;;;;17.76;57.26;99719.88;5090583;28;20045;-42
2023/05/19 04:54:51;;;;;;;;;;;;;;;18.20;56.31;99725.25;5086810;28;19916;-42
2023/05/19 04:57:17;;;;;;;;;;;;;;;18.88;54.37;99717.47;5090943;28;20461;-42
2023/05/19 04:59:42;;;;;;;;;;;;;;;18.97;53.55;99723.22;5092806;28;19912;-42
2023/05/19 05:02:07;;;;;;;;;;;;;;;19.19;53.42;99733.03;5092533;28;20372;-42
2023/05/19 05:04:33;;;;;;;;;;;;;;;19.63;52.04;99730.88;5091448;28;20002;-42
2023/05/19 05:06:58;;;;;;;;;;;;;;;19.97;51.35;99735.03;5091524;28;19990;-47
2023/05/19 05:09:23;;;;;;;;;;;;;;;20.24;50.63;99741.06;5091675;28;20309;-41
2023/05/19 05:11:50;;;;;;;;;;;;;;;20.63;49.57;99737.88;5090734;28;19936;-42
2023/05/19 05:14:16;;;;;;;;;;;;;;;20.46;50.28;99748.13;5091033;28;20019;-42
2023/05/19 05:16:42;;;;;;;;;;;;;;;20.42;49.25;99741.63;5090850;28;19945;-42
2023/05/19 05:19:07;;;;;;;;;;;;;;;21.31;48.13;99746.75;5090877;28;19912;-42
2023/05/19 05:21:33;;;;;;;;;;;;;;;21.16;47.41;99739.47;5090685;28;19919;-47
2023/05/19 05:23:58;;;;;;;;;;;;;;;21.37;47.63;99740.22;5090548;28;19912;-46
2023/05/19 05:26:27;;;;;;;;;;;;;;;21.92;45.96;99737.63;5090736;28;19916;-47
2023/05/19 05:28:52;;;;;;;;;;;;;;;22.21;45.87;99741.22;5086694;28;20020;-47
2023/05/19 05:31:18;;;;;;;;;;;;;;;22.28;45.39;99737.44;5090758;28;20006;-47
2023/05/19 05:33:45;;;;;;;;;;;;;;;22.28;45.80;99740.97;5089987;28;20287;-47
2023/05/19 05:36:10;;;;;;;;;;;;;;;22.23;45.82;99740.94;5091044;28;19923;-46
2023/05/19 05:38:35;;;;;;;;;;;;;;;22.27;45.35;99733.91;5090811;28;19919;-46
2023/05/19 05:41:01;;;;;;;;;;;;;;;22.10;45.61;99753.22;5090931;28;19912;-47
2023/05/19 05:43:27;;;;;;;;;;;;;;;22.46;44.82;99753.03;5090668;28;19997;-47
2023/05/19 05:45:52;;;;;;;;;;;;;;;22.51;44.32;99753.00;5090257;28;20306;-42
2023/05/19 05:48:18;;;;;;;;;;;;;;;23.74;42.91;99754.53;5090535;28;19919;-42
2023/05/19 05:50:44;;;;;;;;;;;;;;;23.44;43.15;99758.41;5089322;28;20030;-41
2023/05/19 05:53:14;;;;;;;;;;;;;;;23.91;42.54;99758.69;5089517;28;20383;-42
2023/05/19 05:55:40;;;;;;;;;;;;;;;24.56;41.20;99761.59;5088657;28;20364;-40
2023/05/19 05:58:09;;;;;;;;;;;;;;;25.01;40.28;99761.13;5090396;28;19912;-42
2023/05/19 06:00:35;;;;;;;;;;;;;;;24.81;40.63;99772.34;5089921;28;20426;-42
2023/05/19 06:03:01;;;;;;;;;;;;;;;24.94;40.33;99775.13;5090160;28;19920;-42
2023/05/19 06:05:27;;;;;;;;;;;;;;;24.68;40.72;99773.94;5090006;28;19912;-43
2023/05/19 06:07:52;;;;;;;;;;;;;;;24.72;40.97;99781.19;5089327;28;20125;-43
2023/05/19 06:10:18;;;;;;;;;;;;;;;24.47;41.63;99782.38;5089543;28;19918;-42
2023/05/19 06:12:43;;;;;;;;;;;;;;;24.27;41.54;99783.47;5089819;28;20218;-41
2023/05/19 06:15:08;;;;;;;;;;;;;;;24.73;41.11;99784.72;5089610;28;20322;-42
2023/05/19 06:17:36;;;;;;;;;;;;;;;24.23;40.82;99792.53;5089966;28;19966;-43
2023/05/19 06:20:04;;;;;;;;;;;;;;;23.52;43.25;99795.00;5089808;28;19916;-42
2023/05/19 06:22:29;;;;;;;;;;;;;;;22.67;44.57;99790.84;5088372;28;20375;-41
2023/05/19 06:24:55;;;;;;;;;;;;;;;22.69;45.04;99797.59;5089903;28;19912;-41
2023/05/19 06:27:20;;;;;;;;;;;;;;;22.65;44.42;99796.53;5089818;28;19920;-43
2023/05/19 06:29:45;;;;;;;;;;;;;;;23.90;43.04;99784.25;5089231;28;20401;-44
2023/05/19 06:32:10;;;;;;;;;;;;;;;24.45;41.63;99800.91;5089557;28;19920;-42
2023/05/19 06:34:37;;;;;;;;;;;;;;;24.20;41.81;99800.16;5090007;28;19912;-41
2023/05/19 06:37:02;;;;;;;;;;;;;;;24.78;41.17;99803.69;5089550;28;19927;-42
2023/05/19 06:39:28;;;;;;;;;;;;;;;23.48;43.28;99799.38;5089108;28;19912;-43
2023/05/19 06:41:53;;;;;;;;;;;;;;;23.10;44.65;99802.72;5089193;28;19988;-43
2023/05/19 06:44:18;;;;;;;;;;;;;;;23.67;44.26;99800.25;5090326;28;19920;-43
2023/05/19 06:46:44;;;;;;;;;;;;;;;23.75;44.31;99798.81;5093804;28;20403;-42
2023/05/19 06:49:09;;;;;;;;;;;;;;;24.11;43.18;99793.75;5096163;28;19912;-43
2023/05/19 06:51:35;;;;;;;;;;;;;;;24.45;42.86;99803.63;5088966;28;19920;-41
2023/05/19 06:54:00;;;;;;;;;;;;;;;24.34;43.26;99802.97;5088912;28;19916;-42
2023/05/19 06:56:26;;;;;;;;;;;;;;;24.55;42.53;99789.91;5089398;28;19912;-42
2023/05/19 06:58:51;;;;;;;;;;;;;;;24.92;42.01;99796.41;5092691;28;20010;-41
2023/05/19 07:01:16;;;;;;;;;;;;;;;24.53;42.66;99794.03;5094205;28;19912;-42
2023/05/19 07:03:41;;;;;;;;;;;;;;;25.00;42.19;99789.47;5093102;28;19912;-42
2023/05/19 07:06:07;;;;;;;;;;;;;;;24.75;42.33;99793.41;5092258;28;19924;-42
2023/05/19 07:08:33;;;;;;;;;;;;;;;24.61;43.27;99790.63;5092646;28;19951;-41
2023/05/19 07:10:58;;;;;;;;;;;;;;;25.13;41.48;99796.03;5090531;28;19993;-42
2023/05/19 07:13:23;;;;;;;;;;;;;;;25.77;40.90;99789.97;5093527;28;19920;-41
2023/05/19 07:15:51;;;;;;;;;;;;;;;24.59;42.17;99781.97;5093697;28;20303;-41
2023/05/19 07:18:16;;;;;;;;;;;;;;;24.77;41.85;99786.56;5091549;28;19920;-41
2023/05/19 07:20:41;;;;;;;;;;;;;;;23.63;43.90;99791.06;5093375;28;19917;-46
2023/05/19 07:23:06;;;;;;;;;;;;;;;24.24;43.89;99785.97;5090202;28;19912;-46
2023/05/19 07:25:32;;;;;;;;;;;;;;;24.98;43.35;99788.97;5093029;28;19938;-46
2023/05/19 07:27:57;;;;;;;;;;;;;;;24.96;42.31;99794.69;5086361;28;19924;-46
2023/05/19 07:30:23;;;;;;;;;;;;;;;25.55;41.30;99792.31;5072802;28;19919;-46
2023/05/19 07:32:48;;;;;;;;;;;;;;;26.55;39.91;99796.19;5086906;28;19993;-46
2023/05/19 07:35:13;;;;;;;;;;;;;;;25.79;41.11;99802.19;5087235;28;19923;-46
2023/05/19 07:37:39;;;;;;;;;;;;;;;26.30;39.80;99787.50;5073663;28;19913;-46
2023/05/19 07:40:05;;;;;;;;;;;;;;;27.06;38.93;99799.66;5073596;28;19912;-46
2023/05/19 07:42:30;;;;;;;;;;;;;;;27.68;37.85;99799.66;5073579;28;19916;-46
2023/05/19 07:44:56;;;;;;;;;;;;;;;27.00;38.59;99796.22;5073551;28;20365;-46
2023/05/19 07:47:21;;;;;;;;;;;;;;;27.32;38.07;99802.53;5073435;28;19913;-46
2023/05/19 07:49:46;;;;;;;;;;;;;;;27.25;37.98;99794.78;5073892;28;19912;-46
2023/05/19 07:52:12;;;;;;;;;;;;;;;27.80;37.63;99801.75;5091847;28;19916;-46
2023/05/19 07:54:37;;;;;;;;;;;;;;;28.09;36.72;99805.88;5092138;28;19934;-45
2023/05/19 07:57:02;;;;;;;;;;;;;;;27.38;36.13;99806.75;5091651;28;19912;-46
2023/05/19 07:59:27;;;;;;;;;;;;;;;27.37;37.65;99807.84;5091672;28;19977;-47
2023/05/19 08:01:53;;;;;;;;;;;;;;;27.38;37.75;99811.38;5092336;28;20314;-45
2023/05/19 08:04:18;;;;;;;;;;;;;;;27.32;37.14;99809.91;5090793;28;19964;-46
2023/05/19 08:06:43;;;;;;;;;;;;;;;28.00;37.08;99814.06;5092166;28;20303;-46
2023/05/19 08:09:09;;;;;;;;;;;;;;;28.76;34.42;99817.53;5090696;28;19911;-47
2023/05/19 08:11:34;;;;;;;;;;;;;;;27.94;35.74;99820.00;5092117;28;19969;-45
2023/05/19 08:14:00;;;;;;;;;;;;;;;28.10;36.10;99825.81;5093269;28;20007;-46
2023/05/19 08:16:25;;;;;;;;;;;;;;;27.82;36.34;99828.78;5093085;28;19912;-46
2023/05/19 08:18:51;;;;;;;;;;;;;;;27.01;37.61;99819.66;5093510;28;20403;-47
2023/05/19 08:21:16;;;;;;;;;;;;;;;27.29;37.59;99820.34;5093256;28;19919;-45
2023/05/19 08:23:41;;;;;;;;;;;;;;;27.87;35.55;99812.22;5093217;28;19939;-46
2023/05/19 08:26:06;;;;;;;;;;;;;;;27.88;35.79;99813.84;5092831;28;20338;-46
2023/05/19 08:28:32;;;;;;;;;;;;;;;27.38;36.72;99814.94;5092813;28;20382;-46
2023/05/19 08:30:57;;;;;;;;;;;;;;;28.31;36.04;99820.53;5092680;28;19916;-46
2023/05/19 08:33:22;;;;;;;;;;;;;;;27.78;36.08;99814.13;5092788;28;19966;-47
2023/05/19 08:35:48;;;;;;;;;;;;;;;27.59;36.90;99812.47;5092821;28;19912;-47
2023/05/19 08:38:13;;;;;;;;;;;;;;;28.04;36.73;99815.03;5092714;28;20339;-46
2023/05/19 08:40:42;;;;;;;;;;;;;;;27.45;36.56;99800.81;5092355;28;19912;-46
2023/05/19 08:43:07;;;;;;;;;;;;;;;27.80;36.39;99815.44;5092423;28;19919;-46
2023/05/19 08:45:37;;;;;;;;;;;;;;;28.94;34.73;99819.13;5092479;28;19912;-47
2023/05/19 08:48:02;;;;;;;;;;;;;;;28.78;34.11;99807.06;5092089;28;19974;-46
2023/05/19 08:50:29;;;;;;;;;;;;;;;29.11;33.39;99809.25;5092664;28;19912;-47
2023/05/19 08:52:54;;;;;;;;;;;;;;;28.85;34.53;99805.44;5092464;28;19919;-47
2023/05/19 08:55:20;;;;;;;;;;;;;;;29.58;33.26;99804.59;5092411;28;19912;-47
2023/05/19 08:57:46;;;;;;;;;;;;;;;30.03;32.65;99800.53;5092469;28;19988;-47
2023/05/19 09:00:13;;;;;;;;;;;;;;;29.72;33.56;99807.13;5092233;28;19973;-47
2023/05/19 09:02:39;;;;;;;;;;;;;;;28.87;33.94;99805.09;5092358;28;19916;-47
2023/05/19 09:05:05;;;;;;;;;;;;;;;28.78;34.65;99801.56;5091873;28;20333;-47
2023/05/19 09:07:33;;;;;;;;;;;;;;;28.84;34.53;99806.56;5092118;28;20022;-47
2023/05/19 09:10:00;;;;;;;;;;;;;;;29.98;33.01;99808.94;5091740;28;20017;-47
2023/05/19 09:12:25;;;;;;;;;;;;;;;30.31;32.01;99803.56;5091761;28;19916;-47
2023/05/19 09:14:51;;;;;;;;;;;;;;;29.91;32.35;99805.91;5091978;28;20284;-47
2023/05/19 09:17:17;;;;;;;;;;;;;;;30.35;29.81;99804.50;5092062;28;20380;-47
2023/05/19 09:19:46;;;;;;;;;;;;;;;29.94;31.09;99802.50;5092147;28;19920;-47
2023/05/19 09:22:13;;;;;;;;;;;;;;;30.80;30.92;99792.00;5091819;28;19922;-47
2023/05/19 09:24:39;;;;;;;;;;;;;;;31.51;30.08;99792.88;5092140;28;20357;-47
2023/05/19 09:27:04;;;;;;;;;;;;;;;31.11;30.39;99794.31;5091078;28;19920;-47
2023/05/19 09:29:30;;;;;;;;;;;;;;;31.67;30.07;99795.75;5090863;28;19977;-47
2023/05/19 09:31:59;;;;;;;;;;;;;;;30.45;31.06;99791.53;5089740;28;19916;-47
2023/05/19 09:34:25;;;;;;;;;;;;;;;31.06;30.03;99794.50;5090529;28;20339;-47
2023/05/19 09:36:52;;;;;;;;;;;;;;;31.18;29.85;99791.78;5090859;28;20296;-47
2023/05/19 09:39:24;;;;;;;;;;;;;;;31.95;29.72;99796.66;5091103;28;19968;-47
2023/05/19 09:41:52;;;;;;;;;;;;;;;31.66;29.54;99786.72;5090582;28;19912;-46
2023/05/19 09:44:28;;;;;;;;;;;;;;;30.50;29.80;99796.78;5090587;28;19912;-47
2023/05/19 09:46:53;;;;;;;;;;;;;;;31.83;28.78;99787.59;5090696;28;19912;-46
2023/05/19 09:49:19;;;;;;;;;;;;;;;32.25;28.00;99773.56;5090381;28;19912;-46
2023/05/19 09:51:45;;;;;;;;;;;;;;;31.54;29.77;99779.25;5090625;28;19920;-47
2023/05/19 09:54:13;;;;;;;;;;;;;;;32.13;28.80;99780.69;5090535;28;19912;-46
2023/05/19 09:56:39;;;;;;;;;;;;;;;32.69;26.43;99777.22;5090115;28;19969;-46
2023/05/19 09:59:06;;;;;;;;;;;;;;;32.39;26.95;99776.72;5090202;28;19912;-46
2023/05/19 10:01:32;;;;;;;;;;;;;;;30.10;29.19;99789.81;5090233;28;20372;-46
2023/05/19 10:03:58;;;;;;;;;;;;;;;30.57;29.70;99786.09;5089762;28;19970;-46
2023/05/19 10:06:24;;;;;;;;;;;;;;;31.42;27.39;99779.22;5090157;28;20441;-46
2023/05/19 10:08:50;;;;;;;;;;;;;;;31.80;27.73;99780.06;5089830;28;20114;-46
2023/05/19 10:11:16;;;;;;;;;;;;;;;32.15;27.04;99781.16;5089804;28;20004;-46
2023/05/19 10:13:41;;;;;;;;;;;;;;;30.34;28.30;99782.88;5089648;28;19916;-46
2023/05/19 10:16:08;;;;;;;;;;;;;;;31.38;27.52;99776.34;5089302;28;19948;-46
2023/05/19 10:18:33;;;;;;;;;;;;;;;31.82;28.23;99773.06;5089858;28;19912;-46
2023/05/19 10:20:59;;;;;;;;;;;;;;;31.96;27.59;99776.22;5090072;28;20249;-46
2023/05/19 10:23:25;;;;;;;;;;;;;;;31.95;27.81;99768.34;5089774;28;19912;-48
2023/05/19 10:25:53;;;;;;;;;;;;;;;32.23;26.98;99762.09;5089987;28;19989;-42
2023/05/19 10:28:24;;;;;;;;;;;;;;;31.71;27.32;99761.72;5089895;28;19980;-42
2023/05/19 10:30:52;;;;;;;;;;;;;;;31.92;27.47;99758.00;5089823;28;20493;-42
2023/05/19 10:33:19;;;;;;;;;;;;;;;31.53;28.05;99755.66;5093555;28;19916;-41
2023/05/19 10:36:07;;;;;;;;;;;;;;;31.68;28.16;99759.66;5094191;28;19912;-41
2023/05/19 10:38:43;;;;;;;;;;;;;;;32.00;27.42;99748.03;5093950;28;20011;-42
2023/05/19 10:41:11;;;;;;;;;;;;;;;31.72;29.64;99757.00;5093528;28;19985;-41
2023/05/19 10:43:50;;;;;;;;;;;;;;;32.38;28.83;99750.34;5094155;28;19912;-41
2023/05/19 10:46:15;;;;;;;;;;;;;;;31.73;28.45;99753.91;5094115;28;19961;-42
2023/05/19 10:48:45;;;;;;;;;;;;;;;30.19;28.20;99759.56;5093640;28;20372;-43
2023/05/19 10:51:11;;;;;;;;;;;;;;;29.33;29.90;99756.19;5093948;28;19920;-42
2023/05/19 10:53:39;;;;;;;;;;;;;;;29.86;30.53;99752.06;5093799;28;20052;-41
2023/05/19 10:56:06;;;;;;;;;;;;;;;30.13;29.73;99755.41;5093504;28;19957;-41
2023/05/19 10:58:57;;;;;;;;;;;;;;;29.33;29.18;99759.72;5094171;28;19947;-42
2023/05/19 11:01:28;;;;;;;;;;;;;;;29.18;30.68;99761.06;5091570;28;19919;-43
2023/05/19 11:03:56;;;;;;;;;;;;;;;28.13;32.28;99759.56;5093787;28;19912;-41
2023/05/19 11:06:31;;;;;;;;;;;;;;;28.81;31.74;99762.59;5093262;28;20127;-42
2023/05/19 11:09:00;;;;;;;;;;;;;;;29.89;31.55;99773.34;5093754;28;19912;-42
2023/05/19 11:11:26;;;;;;;;;;;;;;;28.33;31.64;99779.97;5093188;28;19916;-42
2023/05/19 11:13:54;;;;;;;;;;;;;;;27.00;33.71;99779.06;5093369;28;19956;-42
2023/05/19 11:16:26;;;;;;;;;;;;;;;26.66;34.28;99770.31;5093348;28;20421;-42
2023/05/19 11:18:52;;;;;;;;;;;;;;;25.87;36.46;99759.78;5093312;28;19916;-42
2023/05/19 11:21:18;;;;;;;;;;;;;;;24.87;38.74;99771.97;5093290;28;20000;-42
2023/05/19 11:23:43;;;;;;;;;;;;;;;24.41;39.14;99769.97;5093156;28;20349;-41
2023/05/19 11:26:09;;;;;;;;;;;;;;;23.57;39.85;99768.59;5093429;28;19922;-42
2023/05/19 11:28:35;;;;;;;;;;;;;;;23.60;40.89;99762.56;5093126;28;19971;-41
2023/05/19 11:31:01;;;;;;;;;;;;;;;23.93;40.89;99754.59;5093127;28;19916;-43
2023/05/19 11:33:26;;;;;;;;;;;;;;;24.17;40.13;99764.59;5091795;28;19920;-43
2023/05/19 11:35:52;;;;;;;;;;;;;;;25.03;37.96;99785.34;5092764;28;19943;-41
2023/05/19 11:38:18;;;;;;;;;;;;;;;25.59;37.63;99770.72;5091892;28;19916;-42
2023/05/19 11:40:43;;;;;;;;;;;;;;;26.05;36.25;99756.16;5090242;28;19923;-43
2023/05/19 11:43:09;;;;;;;;;;;;;;;26.56;36.36;99751.44;5093216;28;20414;-41
2023/05/19 11:45:34;;;;;;;;;;;;;;;26.90;35.55;99745.44;5093742;28;20023;-42
2023/05/19 11:47:59;;;;;;;;;;;;;;;27.44;34.93;99750.03;5093004;28;20280;-48
2023/05/19 11:50:25;;;;;;;;;;;;;;;27.24;33.66;99745.91;5092816;28;19936;-48
2023/05/19 11:52:51;;;;;;;;;;;;;;;27.29;33.46;99740.34;5093130;28;19923;-48
2023/05/19 11:55:17;;;;;;;;;;;;;;;27.52;33.97;99741.06;5092089;28;19928;-43
2023/05/19 11:57:59;;;;;;;;;;;;;;;27.22;34.90;99742.69;5084480;28;19920;-41
2023/05/19 12:00:27;;;;;;;;;;;;;;;27.41;33.57;99739.75;5090565;28;20526;-43
2023/05/19 12:02:53;;;;;;;;;;;;;;;27.60;33.45;99734.81;5092715;28;19962;-42
2023/05/19 12:05:22;;;;;;;;;;;;;;;28.33;32.36;99734.28;5091713;28;20363;-42
2023/05/19 12:07:50;;;;;;;;;;;;;;;28.69;31.91;99735.88;5092488;28;19918;-41
2023/05/19 12:10:15;;;;;;;;;;;;;;;28.62;32.13;99730.09;5091810;28;20010;-42
2023/05/19 12:12:41;;;;;;;;;;;;;;;29.11;31.43;99732.53;5091965;28;20080;-44
2023/05/19 12:15:07;;;;;;;;;;;;;;;29.21;31.49;99726.75;5092423;28;19962;-42
2023/05/19 12:17:32;;;;;;;;;;;;;;;29.84;29.16;99737.88;5092388;28;20349;-47
2023/05/19 12:19:58;;;;;;;;;;;;;;;30.25;28.80;99722.53;5092095;28;19923;-47
2023/05/19 12:22:23;;;;;;;;;;;;;;;30.54;29.04;99729.09;5092542;28;19912;-46
2023/05/19 12:24:49;;;;;;;;;;;;;;;30.26;28.58;99723.38;5092145;28;19934;-46
2023/05/19 12:27:18;;;;;;;;;;;;;;;30.47;29.11;99726.13;5092098;28;20011;-46
2023/05/19 12:29:54;;;;;;;;;;;;;;;30.70;29.67;99721.84;5092486;28;20272;-41
2023/05/19 12:32:22;;;;;;;;;;;;;;;31.64;29.22;99719.44;5092341;28;20004;-47
2023/05/19 12:34:48;;;;;;;;;;;;;;;32.48;27.41;99713.25;5091582;28;19912;-45
2023/05/19 12:37:13;;;;;;;;;;;;;;;31.99;27.47;99713.38;5088210;28;19924;-46
2023/05/19 12:39:40;;;;;;;;;;;;;;;32.37;27.80;99703.88;5090080;28;20376;-46
2023/05/19 12:42:10;;;;;;;;;;;;;;;32.64;27.00;99710.56;5091659;28;19923;-46
2023/05/19 12:44:36;;;;;;;;;;;;;;;32.59;26.19;99703.34;5091037;28;19920;-46